Time;durP1;ratioP1;P1;durP2;ratioP2;P2;SDS_P1;SDS_P2;PMS_P1;PMS_P2;Temp;Humidity;BMP_temperature;BMP_pressure;BME280_temperature;BME280_humidity;BME280_pressure;Samples;Min_cycle;Max_cycle;Signal;HPM_P1;HPM_P2
2023/08/22 00:01:27;;;;;;;4.05;1.90;;;16.00;99.90;;;;;;5050806;28;20727;-57
2023/08/22 00:03:56;;;;;;;2.08;1.20;;;16.90;99.90;;;;;;5050498;28;20021;-50
2023/08/22 00:06:22;;;;;;;3.88;1.58;;;15.90;99.90;;;;;;5050756;28;20474;-52
2023/08/22 00:08:48;;;;;;;3.78;1.70;;;16.60;99.90;;;;;;5050351;28;20100;-51
2023/08/22 00:11:13;;;;;;;3.53;1.80;;;17.60;99.90;;;;;;5050471;28;20053;-50
2023/08/22 00:13:39;;;;;;;3.97;1.70;;;15.60;99.90;;;;;;5050470;28;20040;-48
2023/08/22 00:16:05;;;;;;;2.75;1.48;;;16.20;99.90;;;;;;5050543;28;20055;-48
2023/08/22 00:18:31;;;;;;;4.72;1.50;;;15.50;99.90;;;;;;5050321;28;20024;-45
2023/08/22 00:20:56;;;;;;;2.92;1.40;;;13.70;99.90;;;;;;5050503;28;20028;-49
2023/08/22 00:23:22;;;;;;;4.70;1.58;;;14.70;99.90;;;;;;5050394;28;20086;-49
2023/08/22 00:25:48;;;;;;;1.92;1.35;;;;;;;;;;5050285;28;20021;-53
2023/08/22 00:28:14;;;;;;;4.28;1.38;;;15.80;99.90;;;;;;5050299;28;20079;-58
2023/08/22 00:30:40;;;;;;;2.38;1.48;;;17.10;99.90;;;;;;5050235;28;20044;-56
2023/08/22 00:33:06;;;;;;;3.60;1.63;;;15.40;99.90;;;;;;5048967;28;20084;-50
2023/08/22 00:35:31;;;;;;;3.05;1.52;;;13.10;99.90;;;;;;5050426;28;20071;-49
2023/08/22 00:37:57;;;;;;;2.30;1.20;;;14.50;99.90;;;;;;5048959;28;20040;-45
2023/08/22 00:40:22;;;;;;;2.67;1.45;;;16.50;99.90;;;;;;5050388;28;20017;-51
2023/08/22 00:42:50;;;;;;;3.25;1.75;;;15.50;99.90;;;;;;5050096;28;20025;-48
2023/08/22 00:45:16;;;;;;;3.55;1.83;;;15.40;99.90;;;;;;5050071;28;20029;-49
2023/08/22 00:47:41;;;;;;;2.85;1.48;;;16.40;99.90;;;;;;5049978;28;20041;-53
2023/08/22 00:50:08;;;;;;;2.47;1.48;;;17.30;99.90;;;;;;5049939;28;20060;-50
2023/08/22 00:52:34;;;;;;;2.97;1.67;;;15.40;99.90;;;;;;5050012;28;20056;-53
2023/08/22 00:55:00;;;;;;;3.50;1.77;;;16.30;99.90;;;;;;5050098;28;20025;-54
2023/08/22 00:57:25;;;;;;;2.50;1.40;;;16.50;99.90;;;;;;5050072;28;20052;-49
2023/08/22 00:59:52;;;;;;;5.50;1.60;;;15.90;99.90;;;;;;5049826;28;20082;-49
2023/08/22 01:02:17;;;;;;;4.40;1.33;;;13.40;99.90;;;;;;5050064;28;20158;-46
2023/08/22 01:04:43;;;;;;;5.97;1.60;;;15.70;99.90;;;;;;5050551;28;20108;-50
2023/08/22 01:07:18;;;;;;;5.15;1.40;;;16.70;99.90;;;;;;5053743;28;20025;-49
2023/08/22 01:09:57;;;;;;;2.00;1.15;;;13.30;99.90;;;;;;5053858;28;20029;-55
2023/08/22 01:12:52;;;;;;;2.88;1.30;;;15.90;99.90;;;;;;5053650;28;20473;-49
2023/08/22 01:15:25;;;;;;;3.63;1.35;;;15.20;99.90;;;;;;5053651;28;20534;-53
2023/08/22 01:17:56;;;;;;;3.08;1.20;;;15.20;99.90;;;;;;5053831;28;20386;-50
2023/08/22 01:20:24;;;;;;;5.22;1.10;;;13.40;99.90;;;;;;5053536;28;20028;-52
2023/08/22 01:22:50;;;;;;;3.73;1.10;;;15.30;99.90;;;;;;5053572;28;20022;-51
2023/08/22 01:25:16;;;;;;;3.28;1.45;;;14.90;99.90;;;;;;5053342;28;20257;-55
2023/08/22 01:28:00;;;;;;;2.55;1.25;;;15.60;99.90;;;;;;5053467;28;20036;-56
2023/08/22 01:30:35;;;;;;;2.95;1.25;;;15.40;99.90;;;;;;5053271;28;20017;-49
2023/08/22 01:33:11;;;;;;;2.67;1.23;;;18.20;99.90;;;;;;5053335;28;20029;-53
2023/08/22 01:35:39;;;;;;;4.00;1.20;;;14.70;99.90;;;;;;5053287;28;20017;-48
2023/08/22 01:38:05;;;;;;;3.72;1.60;;;15.40;99.90;;;;;;5053527;28;20108;-54
2023/08/22 01:40:31;;;;;;;3.05;1.38;;;15.20;99.90;;;;;;5053125;28;20013;-51
2023/08/22 01:42:57;;;;;;;3.10;1.40;;;13.80;99.90;;;;;;5053271;28;20059;-49
2023/08/22 01:45:23;;;;;;;2.60;1.40;;;17.40;99.90;;;;;;5053177;28;20021;-54
2023/08/22 01:47:49;;;;;;;2.65;1.40;;;16.60;99.90;;;;;;5053055;28;20551;-54
2023/08/22 01:50:15;;;;;;;5.25;1.80;;;15.10;99.90;;;;;;5052777;28;20085;-48
2023/08/22 01:52:41;;;;;;;8.43;2.22;;;;;;;;;;5053108;28;20028;-50
2023/08/22 01:55:07;;;;;;;9.07;2.55;;;17.20;99.90;;;;;;5053511;28;20029;-44
2023/08/22 01:57:32;;;;;;;3.00;1.45;;;15.80;99.90;;;;;;5053429;28;20020;-55
2023/08/22 01:59:58;;;;;;;7.28;2.08;;;14.30;99.90;;;;;;5052858;28;20031;-52
2023/08/22 02:02:24;;;;;;;4.13;1.95;;;16.00;99.90;;;;;;5052793;28;20108;-51
2023/08/22 02:04:50;;;;;;;6.32;2.20;;;13.50;99.90;;;;;;5052905;28;20105;-56
2023/08/22 02:07:15;;;;;;;3.90;1.75;;;16.40;99.90;;;;;;5052573;28;20048;-52
2023/08/22 02:09:41;;;;;;;7.72;2.53;;;16.00;99.90;;;;;;5052567;28;20024;-49
2023/08/22 02:12:07;;;;;;;3.38;1.98;;;;;;;;;;5052518;28;20085;-53
2023/08/22 02:14:33;;;;;;;3.85;2.08;;;;;;;;;;5052516;28;20115;-52
2023/08/22 02:16:59;;;;;;;7.10;2.70;;;16.00;99.90;;;;;;5052305;28;20025;-50
2023/08/22 02:19:25;;;;;;;4.90;2.00;;;12.90;99.90;;;;;;5052528;28;20390;-48
2023/08/22 02:21:50;;;;;;;5.32;1.98;;;15.40;99.90;;;;;;5052501;28;20029;-55
2023/08/22 02:24:16;;;;;;;7.47;2.47;;;13.50;99.90;;;;;;5052327;28;20036;-55
2023/08/22 02:26:42;;;;;;;6.57;2.38;;;15.50;99.90;;;;;;5052475;28;20017;-48
2023/08/22 02:29:09;;;;;;;8.20;3.47;;;15.50;99.90;;;;;;5052007;28;20490;-47
2023/08/22 02:31:34;;;;;;;8.85;2.45;;;16.80;99.90;;;;;;5052452;28;20031;-52
2023/08/22 02:34:00;;;;;;;4.32;2.30;;;13.50;99.90;;;;;;5051785;28;20457;-54
2023/08/22 02:36:26;;;;;;;5.95;2.28;;;16.70;99.90;;;;;;5052295;28;20050;-48
2023/08/22 02:38:51;;;;;;;5.35;2.75;;;15.50;99.90;;;;;;5051977;28;20371;-57
2023/08/22 02:41:17;;;;;;;4.10;2.92;;;18.10;99.90;;;;;;5052082;28;20025;-53
2023/08/22 02:43:43;;;;;;;8.68;2.90;;;;;;;;;;5051804;28;20032;-54
2023/08/22 02:46:08;;;;;;;4.82;2.40;;;16.90;99.90;;;;;;5051830;28;20135;-49
2023/08/22 02:48:34;;;;;;;7.47;3.05;;;18.00;99.90;;;;;;5051804;28;20053;-53
2023/08/22 02:50:59;;;;;;;7.03;2.65;;;14.00;99.90;;;;;;5051561;28;20029;-49
2023/08/22 02:53:25;;;;;;;5.28;2.50;;;16.20;99.90;;;;;;5052023;28;20020;-44
2023/08/22 02:55:51;;;;;;;6.85;2.60;;;17.30;99.90;;;;;;5051807;28;20028;-44
2023/08/22 02:58:16;;;;;;;6.15;2.90;;;17.00;99.90;;;;;;5051384;28;20381;-45
2023/08/22 03:00:45;;;;;;;8.02;2.78;;;17.10;99.90;;;;;;5051598;28;20059;-44
2023/08/22 03:03:11;;;;;;;5.30;2.40;;;16.40;99.90;;;;;;5051622;28;20125;-45
2023/08/22 03:05:37;;;;;;;6.05;2.30;;;16.10;99.90;;;;;;5051909;28;20090;-44
2023/08/22 03:08:03;;;;;;;7.20;2.45;;;17.90;99.90;;;;;;5051572;28;20051;-46
2023/08/22 03:10:28;;;;;;;6.95;2.50;;;16.30;99.90;;;;;;5051391;28;20024;-44
2023/08/22 03:12:54;;;;;;;4.95;2.50;;;;;;;;;;5051696;28;20500;-44
2023/08/22 03:15:20;;;;;;;4.80;2.30;;;17.90;99.90;;;;;;5051397;28;20457;-46
2023/08/22 03:17:46;;;;;;;6.05;2.88;;;18.20;99.90;;;;;;5051323;28;20100;-44
2023/08/22 03:20:11;;;;;;;5.53;2.33;;;13.20;99.90;;;;;;5051264;28;20033;-44
2023/08/22 03:22:37;;;;;;;6.95;2.47;;;16.20;99.90;;;;;;5051432;28;20053;-44
2023/08/22 03:25:03;;;;;;;5.72;2.35;;;15.80;99.90;;;;;;5051276;28;20488;-44
2023/08/22 03:27:28;;;;;;;5.07;2.58;;;15.80;99.90;;;;;;5050338;28;20037;-45
2023/08/22 03:29:54;;;;;;;8.93;2.83;;;15.80;99.90;;;;;;5041509;28;20100;-44
2023/08/22 03:32:20;;;;;;;6.82;2.60;;;17.60;99.90;;;;;;5046929;28;20060;-45
2023/08/22 03:34:45;;;;;;;5.82;2.55;;;12.90;99.90;;;;;;5051132;28;20025;-44
2023/08/22 03:37:11;;;;;;;5.15;2.40;;;16.10;99.90;;;;;;5050956;28;20460;-44
2023/08/22 03:39:36;;;;;;;8.43;2.30;;;16.50;99.90;;;;;;5048598;28;20021;-45
2023/08/22 03:42:02;;;;;;;4.32;2.38;;;15.50;99.90;;;;;;5050767;28;20056;-44
2023/08/22 03:44:29;;;;;;;5.90;2.40;;;13.30;99.90;;;;;;5050680;28;20033;-44
2023/08/22 03:46:54;;;;;;;5.78;2.13;;;13.10;99.90;;;;;;5050582;28;20029;-44
2023/08/22 03:49:20;;;;;;;4.85;2.33;;;16.20;99.90;;;;;;5049644;28;20133;-45
2023/08/22 03:51:46;;;;;;;4.78;2.40;;;13.70;99.90;;;;;;5051202;28;20382;-44
2023/08/22 03:54:11;;;;;;;3.45;2.00;;;16.40;99.90;;;;;;5050606;28;20178;-44
2023/08/22 03:56:37;;;;;;;8.75;2.72;;;16.60;99.90;;;;;;5038570;28;20047;-53
2023/08/22 03:59:03;;;;;;;6.57;1.85;;;17.60;99.90;;;;;;5047413;28;20040;-44
2023/08/22 04:01:28;;;;;;;3.28;1.75;;;13.80;99.90;;;;;;5050734;28;20036;-48
2023/08/22 04:03:54;;;;;;;3.88;2.20;;;;;;;;;;5050550;28;20023;-45
2023/08/22 04:06:20;;;;;;;5.07;2.50;;;16.40;99.90;;;;;;5050679;28;20056;-44
2023/08/22 04:08:46;;;;;;;3.50;1.90;;;15.70;99.90;;;;;;5050641;28;20037;-44
2023/08/22 04:11:11;;;;;;;4.72;2.17;;;15.60;99.90;;;;;;5049188;28;20083;-44
2023/08/22 04:13:37;;;;;;;8.48;2.33;;;18.00;99.90;;;;;;5039019;28;20040;-44
2023/08/22 04:16:02;;;;;;;6.03;2.30;;;17.90;99.90;;;;;;5046629;28;20545;-44
2023/08/22 04:18:28;;;;;;;5.55;2.25;;;17.10;99.90;;;;;;5050390;28;20025;-44
2023/08/22 04:20:53;;;;;;;7.22;2.05;;;17.40;99.90;;;;;;5050316;28;20025;-47
2023/08/22 04:23:19;;;;;;;5.45;2.28;;;16.50;99.90;;;;;;5050218;28;20017;-45
2023/08/22 04:25:45;;;;;;;3.20;1.88;;;16.20;99.90;;;;;;5038274;28;20057;-49
2023/08/22 04:28:10;;;;;;;4.15;1.80;;;17.30;99.90;;;;;;5041566;28;20038;-47
2023/08/22 04:30:36;;;;;;;4.45;2.03;;;13.30;99.90;;;;;;5036467;28;20017;-46
2023/08/22 04:33:02;;;;;;;2.97;1.75;;;15.40;99.90;;;;;;5034234;28;20038;-45
2023/08/22 04:35:28;;;;;;;7.45;2.25;;;16.10;99.90;;;;;;5042068;28;20074;-49
2023/08/22 04:37:53;;;;;;;3.83;1.92;;;17.70;99.90;;;;;;5041844;28;20029;-44
2023/08/22 04:40:19;;;;;;;5.20;2.40;;;;;;;;;;5036796;28;20017;-44
2023/08/22 04:42:45;;;;;;;6.95;1.75;;;15.70;99.90;;;;;;5042178;28;20021;-44
2023/08/22 04:45:11;;;;;;;6.50;2.20;;;13.30;99.90;;;;;;5045449;28;20032;-45
2023/08/22 04:47:36;;;;;;;5.97;2.03;;;16.20;99.90;;;;;;5043125;28;20039;-45
2023/08/22 04:50:02;;;;;;;6.45;2.28;;;16.40;99.90;;;;;;5053962;28;20040;-47
2023/08/22 04:52:27;;;;;;;5.20;2.08;;;15.60;99.90;;;;;;5054151;28;20051;-49
2023/08/22 04:54:55;;;;;;;5.20;2.58;;;17.10;99.90;;;;;;5054074;28;20051;-49
2023/08/22 04:57:23;;;;;;;4.32;2.08;;;13.40;99.90;;;;;;5053868;28;20108;-57
2023/08/22 04:59:49;;;;;;;3.92;1.70;;;16.00;99.90;;;;;;5053975;28;20040;-47
2023/08/22 05:02:15;;;;;;;4.88;2.00;;;;;;;;;;5050118;28;20022;-44
2023/08/22 05:04:41;;;;;;;3.65;1.80;;;16.20;99.90;;;;;;5044116;28;20032;-56
2023/08/22 05:07:06;;;;;;;3.75;2.15;;;15.10;99.90;;;;;;5053578;28;20428;-53
2023/08/22 05:09:32;;;;;;;5.57;2.70;;;13.50;99.90;;;;;;5053922;28;20024;-49
2023/08/22 05:11:57;;;;;;;5.97;2.60;;;15.40;99.90;;;;;;5053859;28;20029;-47
2023/08/22 05:14:23;;;;;;;5.22;2.30;;;14.70;99.90;;;;;;5053646;28;20382;-49
2023/08/22 05:16:51;;;;;;;5.80;2.40;;;15.40;99.90;;;;;;5053698;28;20021;-51
2023/08/22 05:19:17;;;;;;;7.90;2.92;;;15.50;99.90;;;;;;5053600;28;20160;-52
2023/08/22 05:21:42;;;;;;;5.90;2.15;;;15.50;99.90;;;;;;5053595;28;20055;-47
2023/08/22 05:24:08;;;;;;;6.45;2.60;;;15.50;99.90;;;;;;5053408;28;20029;-50
2023/08/22 05:26:33;;;;;;;4.38;2.35;;;15.60;99.90;;;;;;5053565;28;20108;-52
2023/08/22 05:28:59;;;;;;;3.40;2.13;;;15.50;99.90;;;;;;5053328;28;20493;-51
2023/08/22 05:31:26;;;;;;;6.57;2.45;;;15.70;99.90;;;;;;5053366;28;20024;-55
2023/08/22 05:33:52;;;;;;;6.38;2.47;;;15.70;99.90;;;;;;5053396;28;20032;-51
2023/08/22 05:36:18;;;;;;;4.82;2.40;;;15.80;99.90;;;;;;5053191;28;20033;-46
2023/08/22 05:38:44;;;;;;;5.60;2.75;;;15.80;99.90;;;;;;5053415;28;20032;-53
2023/08/22 05:41:09;;;;;;;4.43;1.95;;;15.80;99.90;;;;;;5053379;28;20386;-44
2023/08/22 05:43:35;;;;;;;3.95;1.60;;;15.90;99.90;;;;;;5053176;28;20051;-49
2023/08/22 05:46:02;;;;;;;6.55;2.00;;;15.90;99.90;;;;;;5053370;28;20074;-52
2023/08/22 05:48:28;;;;;;;3.05;1.60;;;15.90;99.90;;;;;;5052881;28;20053;-56
2023/08/22 05:50:54;;;;;;;5.32;1.55;;;15.50;99.90;;;;;;5052485;28;20028;-55
2023/08/22 05:53:20;;;;;;;4.65;1.50;;;15.90;99.90;;;;;;5053067;28;20029;-50
2023/08/22 05:55:45;;;;;;;3.90;1.80;;;15.90;99.90;;;;;;5053061;28;20474;-52
2023/08/22 05:58:11;;;;;;;4.70;1.77;;;16.00;99.90;;;;;;5051227;28;20025;-50
2023/08/22 06:00:37;;;;;;;5.47;1.90;;;16.00;99.90;;;;;;5048695;28;20026;-49
2023/08/22 06:03:03;;;;;;;4.35;1.90;;;16.10;99.90;;;;;;5033523;28;20087;-51
2023/08/22 06:05:29;;;;;;;5.07;2.22;;;16.10;99.90;;;;;;5036525;28;20029;-54
2023/08/22 06:07:54;;;;;;;4.00;1.70;;;16.20;99.90;;;;;;5037249;28;20076;-54
2023/08/22 06:10:22;;;;;;;5.10;2.00;;;16.20;99.90;;;;;;5036909;28;20490;-49
2023/08/22 06:12:48;;;;;;;5.15;2.35;;;16.30;99.90;;;;;;5032574;28;20025;-52
2023/08/22 06:15:13;;;;;;;6.35;1.88;;;16.30;99.90;;;;;;5036985;28;20026;-55
2023/08/22 06:17:39;;;;;;;2.92;1.65;;;16.40;99.90;;;;;;5036977;28;20033;-50
2023/08/22 06:20:05;;;;;;;2.97;1.67;;;16.40;99.90;;;;;;5033083;28;20028;-55
2023/08/22 06:22:31;;;;;;;5.65;1.73;;;16.50;99.90;;;;;;5035768;28;20026;-46
2023/08/22 06:24:56;;;;;;;3.95;1.60;;;16.50;99.90;;;;;;5037019;28;20022;-55
2023/08/22 06:27:22;;;;;;;4.22;1.90;;;17.00;99.90;;;;;;5036454;28;20041;-54
2023/08/22 06:29:47;;;;;;;4.32;1.77;;;16.50;99.90;;;;;;5032623;28;20112;-46
2023/08/22 06:32:13;;;;;;;4.72;2.13;;;16.60;99.90;;;;;;5036676;28;20025;-53
2023/08/22 06:34:39;;;;;;;3.17;1.83;;;16.60;99.90;;;;;;5036637;28;20021;-47
2023/08/22 06:37:07;;;;;;;7.28;2.03;;;16.60;99.90;;;;;;5032910;28;20029;-56
2023/08/22 06:39:33;;;;;;;4.18;1.70;;;16.60;99.90;;;;;;5038046;28;20084;-49
2023/08/22 06:41:59;;;;;;;2.90;1.50;;;16.60;99.90;;;;;;5041040;28;20033;-53
2023/08/22 06:44:24;;;;;;;3.30;1.55;;;16.70;99.90;;;;;;5038416;28;20079;-52
2023/08/22 06:46:50;;;;;;;2.83;1.30;;;16.70;99.90;;;;;;5038933;28;20051;-48
2023/08/22 06:49:16;;;;;;;4.30;2.00;;;16.60;99.90;;;;;;5051731;28;20072;-55
2023/08/22 06:51:41;;;;;;;4.50;1.92;;;16.70;99.90;;;;;;5050205;28;20359;-54
2023/08/22 06:54:07;;;;;;;4.10;1.38;;;16.90;99.90;;;;;;5037371;28;20053;-49
2023/08/22 06:56:32;;;;;;;2.80;1.40;;;16.70;99.90;;;;;;5038893;28;20022;-53
2023/08/22 06:58:58;;;;;;;5.38;2.00;;;16.70;99.90;;;;;;5044254;28;20021;-50
2023/08/22 07:01:24;;;;;;;4.45;1.90;;;16.70;99.90;;;;;;5041331;28;20047;-49
2023/08/22 07:03:49;;;;;;;5.78;1.90;;;16.70;99.90;;;;;;5035226;28;20091;-49
2023/08/22 07:06:15;;;;;;;2.47;1.63;;;16.70;99.90;;;;;;5043089;28;20447;-56
2023/08/22 07:08:40;;;;;;;5.70;1.73;;;16.80;99.90;;;;;;5044177;28;20064;-55
2023/08/22 07:11:06;;;;;;;4.90;2.35;;;16.70;99.90;;;;;;5036675;28;20517;-46
2023/08/22 07:13:33;;;;;;;3.63;1.70;;;16.80;99.90;;;;;;5036659;28;20025;-47
2023/08/22 07:15:59;;;;;;;2.20;1.50;;;16.90;99.90;;;;;;5032806;28;20034;-56
2023/08/22 07:18:26;;;;;;;2.45;1.60;;;16.90;99.90;;;;;;5038719;28;20025;-51
2023/08/22 07:20:53;;;;;;;2.58;1.52;;;16.60;99.90;;;;;;5038730;28;20524;-48
2023/08/22 07:23:19;;;;;;;3.47;1.75;;;17.00;99.90;;;;;;5030126;28;20132;-54
2023/08/22 07:25:51;;;;;;;3.65;1.90;;;17.10;99.90;;;;;;5034566;28;20013;-46
2023/08/22 07:28:18;;;;;;;3.45;1.63;;;17.10;99.90;;;;;;5036198;28;20044;-46
2023/08/22 07:30:47;;;;;;;4.40;1.77;;;17.20;99.90;;;;;;5031400;28;20101;-49
2023/08/22 07:33:13;;;;;;;2.78;1.48;;;18.60;99.90;;;;;;5037161;28;20062;-52
2023/08/22 07:35:46;;;;;;;3.33;1.55;;;17.40;99.90;;;;;;5108482;27;20385;-50
2023/08/22 07:38:12;;;;;;;5.00;1.58;;;17.30;99.90;;;;;;5088126;28;20028;-57
2023/08/22 07:40:39;;;;;;;6.07;1.60;;;17.40;99.90;;;;;;5102250;28;20398;-49
2023/08/22 07:43:05;;;;;;;3.33;1.73;;;17.40;99.90;;;;;;5102607;28;20436;-49
2023/08/22 07:45:31;;;;;;;6.45;1.77;;;17.50;99.90;;;;;;5122457;28;20047;-51
2023/08/22 07:47:56;;;;;;;2.65;1.45;;;17.60;99.90;;;;;;5095543;28;20395;-49
2023/08/22 07:50:22;;;;;;;4.28;1.90;;;17.50;99.90;;;;;;5097126;28;20467;-44
2023/08/22 07:52:48;;;;;;;5.32;1.75;;;17.70;99.90;;;;;;5087686;28;20036;-44
2023/08/22 07:55:13;;;;;;;7.25;2.10;;;17.70;99.90;;;;;;5086457;28;20044;-53
2023/08/22 08:00:23;;;;;;;4.30;2.00;;;17.50;99.90;;;;;;4307628;22;20053;-46
2023/08/22 08:02:49;;;;;;;5.75;1.52;;;17.90;99.90;;;;;;5046682;28;20021;-51
2023/08/22 08:05:15;;;;;;;3.55;1.77;;;18.10;99.90;;;;;;5029697;28;20017;-48
2023/08/22 08:07:41;;;;;;;4.72;1.45;;;18.80;99.90;;;;;;5046697;28;20532;-50
2023/08/22 08:10:07;;;;;;;7.35;2.03;;;18.30;99.90;;;;;;5047109;28;20040;-46
2023/08/22 08:12:33;;;;;;;3.33;1.38;;;18.50;99.90;;;;;;5047151;28;20033;-55
2023/08/22 08:14:59;;;;;;;3.05;1.73;;;18.60;99.90;;;;;;5047210;28;20041;-49
2023/08/22 08:17:25;;;;;;;2.38;1.48;;;18.80;99.90;;;;;;5047322;28;20017;-51
2023/08/22 08:19:51;;;;;;;4.15;1.63;;;19.20;99.90;;;;;;5047124;28;20407;-48
2023/08/22 08:22:17;;;;;;;3.22;1.50;;;19.40;99.90;;;;;;5046978;28;20028;-55
2023/08/22 08:24:43;;;;;;;3.03;1.48;;;19.60;99.90;;;;;;5046087;28;20120;-53
2023/08/22 08:27:09;;;;;;;4.65;1.77;;;20.00;99.90;;;;;;5044670;28;20044;-51
2023/08/22 08:29:34;;;;;;;5.20;1.77;;;19.60;99.90;;;;;;5045483;28;20021;-47
2023/08/22 08:32:00;;;;;;;2.55;1.50;;;19.60;99.90;;;;;;5045952;28;20065;-51
2023/08/22 08:34:26;;;;;;;2.78;1.63;;;19.70;99.90;;;;;;5045855;28;20416;-50
2023/08/22 08:36:52;;;;;;;2.00;1.25;;;20.10;99.90;;;;;;5047345;28;20056;-52
2023/08/22 08:39:18;;;;;;;4.03;1.50;;;20.60;99.90;;;;;;5046822;28;20112;-50
2023/08/22 08:42:06;;;;;;;2.58;1.20;;;20.50;99.90;;;;;;5046871;28;20037;-56
2023/08/22 08:44:36;;;;;;;3.97;1.40;;;21.80;99.90;;;;;;5027046;28;20017;-54
2023/08/22 08:47:03;;;;;;;3.78;1.38;;;22.20;99.90;;;;;;5033936;28;20061;-44
2023/08/22 08:49:32;;;;;;;2.17;1.27;;;22.20;99.90;;;;;;5033147;28;20499;-45
2023/08/22 08:52:00;;;;;;;2.75;1.40;;;22.20;99.90;;;;;;5033084;28;20029;-50
2023/08/22 08:54:28;;;;;;;2.70;1.23;;;22.00;99.90;;;;;;5033021;28;20026;-54
2023/08/22 08:56:54;;;;;;;3.67;1.40;;;22.40;99.90;;;;;;5032977;28;20151;-50
2023/08/22 08:59:20;;;;;;;2.53;1.30;;;21.50;99.90;;;;;;5032914;28;20104;-55
2023/08/22 09:01:47;;;;;;;3.40;1.10;;;21.40;99.90;;;;;;5032924;28;20052;-50
2023/08/22 09:04:13;;;;;;;1.85;0.82;;;21.30;99.90;;;;;;5020047;28;20037;-45
2023/08/22 09:06:39;;;;;;;1.20;0.70;;;21.20;99.90;;;;;;5030589;28;20033;-52
2023/08/22 09:09:08;;;;;;;1.45;0.80;;;21.30;99.90;;;;;;5032911;28;20021;-60
2023/08/22 09:11:34;;;;;;;3.83;1.02;;;21.10;99.90;;;;;;5032900;28;20111;-52
2023/08/22 09:14:00;;;;;;;1.45;1.00;;;21.00;99.90;;;;;;5032672;28;20132;-47
2023/08/22 09:16:29;;;;;;;3.55;0.82;;;21.00;99.90;;;;;;5032447;28;20056;-57
2023/08/22 09:19:01;;;;;;;2.58;0.82;;;21.00;99.90;;;;;;5031653;28;20101;-57
2023/08/22 09:21:27;;;;;;;2.65;1.17;;;20.80;99.90;;;;;;5031352;28;20021;-54
2023/08/22 09:23:52;;;;;;;3.05;1.15;;;20.70;99.90;;;;;;5031222;28;20044;-47
2023/08/22 09:26:22;;;;;;;2.78;0.90;;;20.60;99.90;;;;;;5031612;28;20033;-53
2023/08/22 09:28:51;;;;;;;2.30;0.90;;;20.60;99.90;;;;;;5031194;28;20036;-52
2023/08/22 09:31:24;;;;;;;2.78;0.82;;;20.60;99.90;;;;;;5031459;28;20021;-63
2023/08/22 09:33:50;;;;;;;6.55;1.27;;;21.70;99.90;;;;;;5031378;28;20450;-58
2023/08/22 09:36:20;;;;;;;4.00;0.90;;;20.90;99.90;;;;;;5030958;28;20337;-58
2023/08/22 09:38:56;;;;;;;1.58;0.93;;;21.10;99.90;;;;;;5031038;28;20022;-50
2023/08/22 09:41:23;;;;;;;1.67;0.95;;;21.20;99.90;;;;;;5030699;28;20052;-45
2023/08/22 09:43:53;;;;;;;4.07;1.10;;;21.20;99.90;;;;;;5031421;28;20049;-55
2023/08/22 09:46:21;;;;;;;1.88;1.00;;;21.20;99.90;;;;;;5031223;28;20029;-58
2023/08/22 09:48:48;;;;;;;1.63;0.90;;;21.20;99.90;;;;;;5031888;28;20084;-54
2023/08/22 09:51:19;;;;;;;7.32;1.20;;;21.30;99.90;;;;;;5032220;28;20109;-42
2023/08/22 09:53:50;;;;;;;2.17;1.20;;;21.50;99.90;;;;;;5032283;28;20032;-42
2023/08/22 09:56:20;;;;;;;2.72;1.17;;;21.70;99.90;;;;;;5032046;28;20450;-47
2023/08/22 09:58:46;;;;;;;4.40;1.25;;;21.90;99.90;;;;;;5031242;28;20557;-49
2023/08/22 10:01:18;;;;;;;2.13;1.10;;;23.30;99.90;;;;;;5031985;28;20089;-53
2023/08/22 10:03:45;;;;;;;1.63;1.05;;;23.20;99.90;;;;;;5032163;28;20471;-52
2023/08/22 10:06:12;;;;;;;5.53;1.17;;;24.90;99.90;;;;;;5032001;28;20025;-43
2023/08/22 10:08:42;;;;;;;2.67;1.25;;;23.60;99.90;;;;;;5031914;28;20064;-49
2023/08/22 10:11:10;;;;;;;1.27;0.88;;;24.20;99.90;;;;;;5032199;28;20029;-48
2023/08/22 10:13:37;;;;;;;1.92;0.95;;;23.10;99.90;;;;;;5031776;28;20037;-56
2023/08/22 10:16:03;;;;;;;2.55;1.02;;;23.10;99.90;;;;;;5032106;28;20124;-54
2023/08/22 10:18:29;;;;;;;1.38;1.00;;;23.20;99.90;;;;;;5031712;28;20096;-51
2023/08/22 10:20:56;;;;;;;2.28;1.00;;;23.20;99.90;;;;;;5031919;28;20436;-59
2023/08/22 10:23:52;;;;;;;2.72;1.48;;;23.40;99.90;;;;;;5031698;28;20021;-46
2023/08/22 10:26:23;;;;;;;2.92;0.98;;;24.30;99.90;;;;;;5031732;28;20037;-54
2023/08/22 10:29:12;;;;;;;2.78;0.73;;;24.60;99.90;;;;;;5031575;28;20029;-49
2023/08/22 10:32:00;;;;;;;4.53;1.08;;;24.50;99.90;;;;;;5031547;28;20753;-47
2023/08/22 10:34:26;;;;;;;2.45;0.82;;;24.90;99.90;;;;;;5020186;28;20377;-53
2023/08/22 10:37:05;;;;;;;3.13;1.02;;;25.50;99.90;;;;;;5031559;28;20032;-52
2023/08/22 10:39:41;;;;;;;;;;;26.00;99.90;;;;;;5031896;28;20097;-59
2023/08/22 10:42:08;;;;;;;2.67;1.00;;;25.80;99.90;;;;;;5031461;28;19905;-56
2023/08/22 10:44:36;;;;;;;2.42;1.02;;;25.20;99.90;;;;;;5031391;28;20068;-55
2023/08/22 10:47:15;;;;;;;0.95;0.50;;;25.10;99.90;;;;;;5031362;28;20060;-54
2023/08/22 10:49:42;;;;;;;1.65;0.80;;;25.10;99.90;;;;;;5031317;28;20022;-50
2023/08/22 10:52:09;;;;;;;4.35;0.82;;;25.30;99.90;;;;;;5031069;28;20028;-46
2023/08/22 10:55:05;;;;;;;3.00;1.02;;;25.40;99.90;;;;;;5031142;28;20488;-48
2023/08/22 10:57:41;;;;;;;1.30;0.73;;;25.30;99.90;;;;;;5031206;28;20040;-45
2023/08/22 11:00:12;;;;;;;3.63;0.77;;;24.90;99.90;;;;;;5031163;28;20056;-46
2023/08/22 11:02:42;;;;;;;4.22;1.02;;;23.90;99.90;;;;;;5031094;28;20147;-43
2023/08/22 11:05:11;;;;;;;0.85;0.52;;;24.30;99.90;;;;;;5031164;28;20480;-45
2023/08/22 11:07:40;;;;;;;5.88;0.90;;;24.00;99.90;;;;;;5031009;28;20026;-46
2023/08/22 11:10:07;;;;;;;3.00;0.73;;;23.70;99.90;;;;;;5030681;28;20554;-45
2023/08/22 11:12:32;;;;;;;5.47;0.85;;;22.00;99.90;;;;;;5030875;28;20502;-46
2023/08/22 11:14:58;;;;;;;3.05;0.93;;;23.50;99.90;;;;;;5030706;28;20068;-43
2023/08/22 11:17:25;;;;;;;3.10;1.10;;;23.30;99.90;;;;;;5030932;28;20029;-49
2023/08/22 11:19:53;;;;;;;2.60;1.30;;;23.20;99.90;;;;;;5030817;28;20061;-46
2023/08/22 11:22:19;;;;;;;2.20;0.90;;;23.30;99.90;;;;;;5031023;28;20028;-56
2023/08/22 11:24:46;;;;;;;3.22;1.13;;;23.40;99.90;;;;;;5030758;28;20029;-50
2023/08/22 11:27:16;;;;;;;3.85;1.10;;;23.70;99.90;;;;;;5030722;28;20022;-43
2023/08/22 11:29:43;;;;;;;2.13;1.00;;;23.70;99.90;;;;;;5012954;28;20083;-46
2023/08/22 11:32:29;;;;;;;3.33;0.98;;;23.70;99.90;;;;;;5030934;28;20021;-44
2023/08/22 11:35:00;;;;;;;3.50;1.33;;;22.70;99.90;;;;;;5030463;28;20101;-43
2023/08/22 11:37:28;;;;;;;1.63;0.90;;;23.50;99.90;;;;;;5030668;28;20025;-45
2023/08/22 11:39:55;;;;;;;3.95;1.08;;;23.50;99.90;;;;;;5030441;28;20076;-46
2023/08/22 11:42:24;;;;;;;2.67;0.98;;;23.60;99.90;;;;;;5030593;28;20018;-43
2023/08/22 11:45:05;;;;;;;3.25;1.00;;;23.80;99.90;;;;;;5030961;28;20046;-44
2023/08/22 11:47:37;;;;;;;2.83;0.98;;;25.10;99.90;;;;;;5030672;28;20014;-49
2023/08/22 11:50:10;;;;;;;2.92;1.05;;;24.40;99.90;;;;;;5030614;28;20025;-52
2023/08/22 11:52:40;;;;;;;4.22;1.23;;;24.40;99.90;;;;;;5030463;28;20026;-51
2023/08/22 11:55:07;;;;;;;4.43;0.90;;;24.60;99.90;;;;;;5030724;28;20045;-52
2023/08/22 11:57:35;;;;;;;2.63;1.08;;;24.00;99.90;;;;;;5030526;28;20037;-54
2023/08/22 12:00:03;;;;;;;1.58;0.75;;;23.80;99.90;;;;;;5030291;28;20120;-50
2023/08/22 12:02:29;;;;;;;3.22;1.15;;;24.60;99.90;;;;;;5030519;28;20028;-54
2023/08/22 12:04:55;;;;;;;1.83;1.13;;;23.50;99.90;;;;;;5030394;28;20025;-45
2023/08/22 12:07:22;;;;;;;1.90;0.98;;;23.50;99.90;;;;;;5030530;28;20105;-49
2023/08/22 12:10:00;;;;;;;7.60;1.20;;;23.40;99.90;;;;;;5030389;28;20030;-54
2023/08/22 12:12:26;;;;;;;3.00;1.05;;;23.40;99.90;;;;;;5030490;28;20026;-46
2023/08/22 12:14:52;;;;;;;2.47;0.93;;;23.50;99.90;;;;;;5030200;28;20037;-54
2023/08/22 12:17:18;;;;;;;5.03;1.08;;;23.60;99.90;;;;;;5029933;28;20533;-45
2023/08/22 12:19:44;;;;;;;2.13;0.93;;;23.90;99.90;;;;;;5030268;28;20048;-52
2023/08/22 12:22:10;;;;;;;2.55;1.15;;;24.30;99.90;;;;;;5032665;28;20017;-55
2023/08/22 12:24:35;;;;;;;3.15;1.02;;;24.30;99.90;;;;;;5032753;28;20432;-54
2023/08/22 12:27:01;;;;;;;3.25;1.25;;;24.80;99.90;;;;;;5033736;28;20020;-45
2023/08/22 12:29:26;;;;;;;2.90;1.15;;;25.10;99.90;;;;;;5033825;28;20021;-44
2023/08/22 12:31:52;;;;;;;1.13;0.70;;;25.60;99.90;;;;;;5033763;28;20384;-53
2023/08/22 12:34:18;;;;;;;2.65;1.40;;;25.70;99.90;;;;;;5033542;28;20042;-46
2023/08/22 12:36:43;;;;;;;4.53;1.00;;;25.50;99.90;;;;;;5033878;28;20037;-53
2023/08/22 12:39:10;;;;;;;4.10;1.67;;;25.50;99.90;;;;;;5033838;28;20045;-50
2023/08/22 12:41:39;;;;;;;2.42;1.00;;;25.80;99.90;;;;;;5033802;28;20033;-61
2023/08/22 12:44:05;;;;;;;3.42;1.13;;;26.10;99.90;;;;;;5033630;28;20014;-58
2023/08/22 12:46:31;;;;;;;3.50;1.10;;;26.30;99.90;;;;;;5033497;28;20112;-56
2023/08/22 12:48:56;;;;;;;2.45;1.08;;;26.30;99.90;;;;;;5033473;28;20029;-54
2023/08/22 12:51:22;;;;;;;2.05;0.77;;;26.40;99.90;;;;;;5029892;28;20079;-53
2023/08/22 12:53:48;;;;;;;2.08;0.73;;;26.20;99.90;;;;;;5032585;28;20079;-52